Time;durP1;ratioP1;P1;durP2;ratioP2;P2;SDS_P1;SDS_P2;PMS_P1;PMS_P2;Temp;Humidity;BMP_temperature;BMP_pressure;BME280_temperature;BME280_humidity;BME280_pressure;Samples;Min_cycle;Max_cycle;Signal;HPM_P1;HPM_P2
2022/02/05 00:01:46;;;;;;;0.08;0.08;;;;;;;;;;4180043;28;20053;-34
2022/02/05 00:03:54;;;;;;;0.10;0.10;;;;;;;;;;4180680;28;20053;-34
2022/02/05 00:05:59;;;;;;;0.10;0.10;;;;;;;;;;4180815;28;20053;-34
2022/02/05 00:11:02;;;;;;;0.10;0.10;;;;;;;;;;4179498;28;20512;-34
2022/02/05 00:15:34;;;;;;;0.10;0.10;;;;;;;;;;4172148;28;20513;-34
2022/02/05 00:38:21;;;;;;;0.00;0.00;;;;;;;;;;4180478;28;20052;-33
2022/02/05 00:42:42;;;;;;;0.10;0.10;;;;;;;;;;4180309;28;20106;-34
2022/02/05 00:44:43;;;;;;;0.10;0.10;;;;;;;;;;4179056;28;20466;-34
2022/02/05 00:46:47;;;;;;;0.20;0.00;;;;;;;;;;4180015;28;20065;-34
2022/02/05 00:48:49;;;;;;;0.20;0.10;;;;;;;;;;4179107;28;20053;-34
2022/02/05 00:50:58;;;;;;;0.10;0.00;;;;;;;;;;4180000;28;20057;-34
2022/02/05 00:53:15;;;;;;;0.10;0.10;;;;;;;;;;4180358;28;20147;-34
2022/02/05 00:55:23;;;;;;;0.10;0.10;;;;;;;;;;4180324;28;20057;-34
2022/02/05 00:59:28;;;;;;;0.10;0.10;;;;;;;;;;4180045;28;20056;-34
2022/02/05 01:01:29;;;;;;;0.10;0.10;;;;;;;;;;4179612;28;20386;-34
2022/02/05 01:03:31;;;;;;;0.25;0.25;;;;;;;;;;4180069;28;20057;-34
2022/02/05 01:05:34;;;;;;;0.05;0.05;;;;;;;;;;4180095;28;20558;-34
2022/02/05 01:07:37;;;;;;;0.10;0.10;;;;;;;;;;4180106;28;20103;-34
2022/02/05 01:09:39;;;;;;;0.10;0.10;;;;;;;;;;4180099;28;20053;-34
2022/02/05 01:11:41;;;;;;;0.10;0.10;;;;;;;;;;4179877;28;20056;-34
2022/02/05 01:13:42;;;;;;;0.10;0.10;;;;;;;;;;4180078;28;20057;-34
2022/02/05 01:15:56;;;;;;;0.40;0.10;;;;;;;;;;4179999;28;20052;-35
2022/02/05 01:18:02;;;;;;;0.10;0.10;;;;;;;;;;4179099;28;20056;-34
2022/02/05 01:22:24;;;;;;;0.20;0.05;;;;;;;;;;4179958;28;20045;-34
2022/02/05 01:24:25;;;;;;;0.15;0.00;;;;;;;;;;4182946;28;20103;-34
2022/02/05 01:26:41;;;;;;;0.10;0.10;;;;;;;;;;4182750;28;20079;-34
2022/02/05 01:28:43;;;;;;;0.10;0.10;;;;;;;;;;4182940;28;20515;-34
2022/02/05 01:30:49;;;;;;;0.10;0.10;;;;;;;;;;4182330;28;20443;-34
2022/02/05 01:33:20;;;;;;;0.20;0.13;;;;;;;;;;4182886;28;20057;-34
2022/02/05 01:35:50;;;;;;;0.30;0.10;;;;;;;;;;4182106;28;20107;-34
2022/02/05 01:58:50;;;;;;;0.10;0.03;;;;;;;;;;4181572;28;20052;-34
2022/02/05 02:05:34;;;;;;;0.00;0.00;;;;;;;;;;4182371;28;20057;-34
2022/02/05 02:10:16;;;;;;;0.10;0.10;;;;;;;;;;4182258;28;20060;-34
2022/02/05 02:12:22;;;;;;;0.13;0.10;;;;;;;;;;4182133;28;20449;-34
2022/02/05 02:17:26;;;;;;;0.05;0.05;;;;;;;;;;4181886;28;20052;-34
2022/02/05 02:19:27;;;;;;;0.13;0.10;;;;;;;;;;4182227;28;20118;-34
2022/02/05 02:21:38;;;;;;;0.10;0.10;;;;;;;;;;4182007;28;20079;-34
2022/02/05 02:30:07;;;;;;;0.10;0.10;;;;;;;;;;4181964;28;20072;-34
2022/02/05 02:32:08;;;;;;;0.00;0.00;;;;;;;;;;4181438;28;20071;-34
2022/02/05 02:34:14;;;;;;;0.08;0.08;;;;;;;;;;4181767;28;20547;-34
2022/02/05 02:36:30;;;;;;;0.32;0.10;;;;;;;;;;4182077;28;20134;-34
2022/02/05 02:38:39;;;;;;;0.10;0.10;;;;;;;;;;4182063;28;20056;-34
2022/02/05 02:40:46;;;;;;;0.30;0.10;;;;;;;;;;4181780;28;20053;-34
2022/02/05 02:42:50;;;;;;;0.05;0.05;;;;;;;;;;4180645;28;20111;-34
2022/02/05 02:44:51;;;;;;;0.00;0.00;;;;;;;;;;4182011;28;20063;-34
2022/02/05 02:46:52;;;;;;;0.10;0.10;;;;;;;;;;4181119;28;20067;-34
2022/02/05 02:48:54;;;;;;;0.10;0.10;;;;;;;;;;4181655;28;20382;-34
2022/02/05 02:58:00;;;;;;;0.10;0.10;;;;;;;;;;4181810;28;20064;-34
2022/02/05 03:00:06;;;;;;;0.50;0.10;;;;;;;;;;4181559;28;20068;-34
2022/02/05 03:02:11;;;;;;;0.30;0.10;;;;;;;;;;4181093;28;20107;-34
2022/02/05 03:04:12;;;;;;;0.08;0.08;;;;;;;;;;4181474;28;20412;-34
2022/02/05 03:06:13;;;;;;;0.20;0.10;;;;;;;;;;4181184;28;20107;-34
2022/02/05 03:08:15;;;;;;;0.10;0.10;;;;;;;;;;4181275;28;20111;-34
2022/02/05 03:10:16;;;;;;;0.10;0.10;;;;;;;;;;4181350;28;20455;-34
2022/02/05 03:12:17;;;;;;;0.08;0.08;;;;;;;;;;4180979;28;20381;-34
2022/02/05 03:14:19;;;;;;;0.17;0.10;;;;;;;;;;4181101;28;20103;-34
2022/02/05 03:16:28;;;;;;;0.47;0.30;;;;;;;;;;4180672;28;20134;-34
2022/02/05 03:18:33;;;;;;;0.13;0.10;;;;;;;;;;4181474;28;20159;-34
2022/02/05 03:20:35;;;;;;;0.00;0.00;;;;;;;;;;4181171;28;20079;-34
2022/02/05 03:22:36;;;;;;;0.03;0.03;;;;;;;;;;4181311;28;20060;-34
2022/02/05 03:24:37;;;;;;;0.10;0.10;;;;;;;;;;4181062;28;20057;-34
2022/02/05 03:26:39;;;;;;;0.10;0.10;;;;;;;;;;4180993;28;20167;-34
2022/02/05 03:28:40;;;;;;;0.00;0.00;;;;;;;;;;4181169;28;20053;-34
2022/02/05 03:30:42;;;;;;;0.10;0.10;;;;;;;;;;4180785;28;20060;-34
2022/02/05 03:32:43;;;;;;;0.10;0.10;;;;;;;;;;4180936;28;20472;-34
2022/02/05 03:34:45;;;;;;;0.45;0.10;;;;;;;;;;4181207;28;20053;-34
2022/02/05 03:36:46;;;;;;;0.10;0.10;;;;;;;;;;4180766;28;20489;-34
2022/02/05 03:38:47;;;;;;;0.20;0.10;;;;;;;;;;4180854;28;20501;-34
2022/02/05 03:40:48;;;;;;;0.38;0.10;;;;;;;;;;4180732;28;20056;-34
2022/02/05 03:42:49;;;;;;;0.00;0.00;;;;;;;;;;4180943;28;20057;-34
2022/02/05 03:44:50;;;;;;;0.03;0.00;;;;;;;;;;4180822;28;20056;-34
2022/02/05 03:46:54;;;;;;;0.13;0.13;;;;;;;;;;4178635;28;20459;-34
2022/02/05 03:48:56;;;;;;;0.00;0.00;;;;;;;;;;4180982;28;20064;-34
2022/02/05 03:50:57;;;;;;;0.10;0.00;;;;;;;;;;4180443;28;20049;-34
2022/02/05 03:52:59;;;;;;;0.00;0.00;;;;;;;;;;4180843;28;20049;-34
2022/02/05 03:55:00;;;;;;;0.00;0.00;;;;;;;;;;4180722;28;20102;-34
2022/02/05 03:57:01;;;;;;;0.10;0.00;;;;;;;;;;4179355;28;20390;-34
2022/02/05 03:59:02;;;;;;;0.10;0.10;;;;;;;;;;4180291;28;20065;-34
2022/02/05 04:01:03;;;;;;;0.10;0.10;;;;;;;;;;4162343;28;20061;-34
2022/02/05 04:03:06;;;;;;;0.00;0.00;;;;;;;;;;4180843;28;20057;-34
2022/02/05 04:05:07;;;;;;;0.00;0.00;;;;;;;;;;4180807;28;20110;-34
2022/02/05 04:07:09;;;;;;;0.00;0.00;;;;;;;;;;4180526;28;20056;-34
2022/02/05 04:09:18;;;;;;;0.30;0.10;;;;;;;;;;4179252;28;20052;-34
2022/02/05 04:11:34;;;;;;;0.10;0.10;;;;;;;;;;4179238;28;20087;-34
2022/02/05 04:16:37;;;;;;;0.10;0.10;;;;;;;;;;4178896;28;20151;-34
2022/02/05 04:18:18;;;;;;;0.00;0.00;;;;;;;;;;4177560;28;20057;-35
2022/02/05 04:20:20;;;;;;;0.15;0.15;;;;;;;;;;4179118;28;20521;-34
2022/02/05 04:22:21;;;;;;;1.38;0.10;;;;;;;;;;4180399;28;20049;-34
2022/02/05 04:24:22;;;;;;;0.00;0.00;;;;;;;;;;4180512;28;20544;-34
2022/02/05 04:26:23;;;;;;;0.10;0.10;;;;;;;;;;4180603;28;20087;-34
2022/02/05 04:28:24;;;;;;;0.25;0.20;;;;;;;;;;4180449;28;20053;-34
2022/02/05 04:30:25;;;;;;;0.10;0.10;;;;;;;;;;4180510;28;20103;-34
2022/02/05 04:32:26;;;;;;;0.00;0.00;;;;;;;;;;4179802;28;20099;-34
2022/02/05 04:34:27;;;;;;;0.28;0.17;;;;;;;;;;4180598;28;20206;-34
2022/02/05 04:36:29;;;;;;;0.40;0.10;;;;;;;;;;4180117;28;20405;-34
2022/02/05 04:38:31;;;;;;;0.00;0.00;;;;;;;;;;4180366;28;20408;-34
2022/02/05 04:40:39;;;;;;;0.17;0.10;;;;;;;;;;4180371;28;20056;-34
2022/02/05 04:42:54;;;;;;;0.00;0.00;;;;;;;;;;4180241;28;20057;-34
2022/02/05 04:45:23;;;;;;;0.05;0.05;;;;;;;;;;4162573;28;20104;-34
2022/02/05 04:56:39;;;;;;;0.10;0.10;;;;;;;;;;4163815;28;20057;-34
2022/02/05 04:59:06;;;;;;;0.28;0.10;;;;;;;;;;4163878;28;20058;-34
2022/02/05 05:01:25;;;;;;;0.00;0.00;;;;;;;;;;4166637;28;20046;-34
2022/02/05 05:03:56;;;;;;;0.20;0.10;;;;;;;;;;4166031;28;20049;-34
2022/02/05 05:06:24;;;;;;;0.10;0.10;;;;;;;;;;4166851;28;20061;-34
2022/02/05 05:10:41;;;;;;;0.03;0.03;;;;;;;;;;4166805;28;20061;-34
2022/02/05 05:12:59;;;;;;;0.00;0.00;;;;;;;;;;4166894;28;20053;-33
2022/02/05 05:19:48;;;;;;;0.10;0.10;;;;;;;;;;4166885;28;20103;-32
2022/02/05 05:21:50;;;;;;;0.17;0.10;;;;;;;;;;4166367;28;20061;-33
2022/02/05 05:23:51;;;;;;;0.20;0.10;;;;;;;;;;4166751;28;20054;-33
2022/02/05 05:25:52;;;;;;;0.10;0.10;;;;;;;;;;4165087;28;20061;-33
2022/02/05 05:27:53;;;;;;;0.13;0.00;;;;;;;;;;4166632;28;20481;-33
2022/02/05 05:29:54;;;;;;;0.10;0.10;;;;;;;;;;4166692;28;20107;-33
2022/02/05 05:31:55;;;;;;;0.10;0.10;;;;;;;;;;4165776;28;20053;-33
2022/02/05 05:33:57;;;;;;;0.10;0.10;;;;;;;;;;4166356;28;20057;-33
2022/02/05 05:35:58;;;;;;;0.10;0.10;;;;;;;;;;4166553;28;20107;-33
2022/02/05 05:37:59;;;;;;;0.25;0.10;;;;;;;;;;4166338;28;20390;-33
2022/02/05 05:40:00;;;;;;;0.15;0.10;;;;;;;;;;4165177;28;20116;-33
2022/02/05 05:42:04;;;;;;;0.10;0.10;;;;;;;;;;4166304;28;20065;-33
2022/02/05 05:46:34;;;;;;;0.30;0.10;;;;;;;;;;4165801;28;20061;-33
2022/02/05 05:51:02;;;;;;;0.10;0.10;;;;;;;;;;4181629;28;20053;-33
2022/02/05 05:53:08;;;;;;;0.00;0.00;;;;;;;;;;4182736;28;20057;-33
2022/02/05 05:55:09;;;;;;;0.10;0.08;;;;;;;;;;4182893;28;20049;-33
2022/02/05 05:57:11;;;;;;;0.10;0.10;;;;;;;;;;4182378;28;20053;-33
2022/02/05 05:59:12;;;;;;;0.10;0.10;;;;;;;;;;4181249;28;20056;-33
2022/02/05 06:01:14;;;;;;;0.10;0.10;;;;;;;;;;4180691;28;20049;-33
2022/02/05 06:03:15;;;;;;;0.17;0.10;;;;;;;;;;4182785;28;20053;-33
2022/02/05 06:05:16;;;;;;;0.10;0.10;;;;;;;;;;4182396;28;20056;-33
2022/02/05 06:07:17;;;;;;;0.10;0.10;;;;;;;;;;4182471;28;20057;-33
2022/02/05 06:09:18;;;;;;;0.10;0.00;;;;;;;;;;4182012;28;20056;-33
2022/02/05 06:11:19;;;;;;;0.00;0.00;;;;;;;;;;4182146;28;20098;-33
2022/02/05 06:13:20;;;;;;;0.30;0.10;;;;;;;;;;4181111;28;20150;-33
2022/02/05 06:15:22;;;;;;;0.08;0.08;;;;;;;;;;4180976;28;20397;-33
2022/02/05 06:17:25;;;;;;;0.65;0.10;;;;;;;;;;4181784;28;20061;-33
2022/02/05 06:19:26;;;;;;;0.10;0.00;;;;;;;;;;4182184;28;20049;-33
2022/02/05 06:21:27;;;;;;;0.10;0.10;;;;;;;;;;4182293;28;20061;-33
2022/02/05 06:23:29;;;;;;;0.10;0.10;;;;;;;;;;4182220;28;20064;-33
2022/02/05 06:25:32;;;;;;;0.00;0.00;;;;;;;;;;4182472;28;20053;-33
2022/02/05 06:27:33;;;;;;;0.10;0.10;;;;;;;;;;4180669;28;20049;-33
2022/02/05 06:29:34;;;;;;;0.13;0.08;;;;;;;;;;4182299;28;20507;-33
2022/02/05 06:31:35;;;;;;;0.10;0.10;;;;;;;;;;4181486;28;20061;-33
2022/02/05 06:33:37;;;;;;;0.08;0.08;;;;;;;;;;4182274;28;20053;-32
2022/02/05 06:35:38;;;;;;;0.10;0.10;;;;;;;;;;4181830;28;20053;-33
2022/02/05 06:37:39;;;;;;;0.22;0.10;;;;;;;;;;4182047;28;20095;-33
2022/02/05 06:39:40;;;;;;;0.40;0.10;;;;;;;;;;4181844;28;20110;-33
2022/02/05 06:41:41;;;;;;;0.00;0.00;;;;;;;;;;4181918;28;20056;-33
2022/02/05 06:43:42;;;;;;;0.10;0.10;;;;;;;;;;4182130;28;20057;-33
2022/02/05 06:45:43;;;;;;;0.05;0.00;;;;;;;;;;4163748;28;20448;-33
2022/02/05 06:47:45;;;;;;;0.10;0.10;;;;;;;;;;4182217;28;20114;-33
2022/02/05 06:49:46;;;;;;;0.08;0.08;;;;;;;;;;4181688;28;20119;-33
2022/02/05 06:51:47;;;;;;;0.00;0.00;;;;;;;;;;4181516;28;20130;-33
2022/02/05 06:53:48;;;;;;;0.20;0.10;;;;;;;;;;4181716;28;20447;-33
2022/02/05 06:55:49;;;;;;;0.15;0.10;;;;;;;;;;4181514;28;20114;-33
2022/02/05 06:57:50;;;;;;;0.00;0.00;;;;;;;;;;4181886;28;20111;-33
2022/02/05 06:59:51;;;;;;;0.55;0.13;;;;;;;;;;4181322;28;20123;-33
2022/02/05 07:01:52;;;;;;;0.00;0.00;;;;;;;;;;4181052;28;20049;-33
2022/02/05 07:03:54;;;;;;;0.10;0.10;;;;;;;;;;4181451;28;20103;-33
2022/02/05 07:05:56;;;;;;;0.05;0.05;;;;;;;;;;4181422;28;20500;-33
2022/02/05 07:07:57;;;;;;;0.30;0.10;;;;;;;;;;4181442;28;20485;-33
2022/02/05 07:09:58;;;;;;;0.22;0.10;;;;;;;;;;4181413;28;20531;-33
2022/02/05 07:12:00;;;;;;;0.40;0.10;;;;;;;;;;4181246;28;20053;-33
2022/02/05 07:14:04;;;;;;;0.10;0.10;;;;;;;;;;4181571;28;20061;-33
2022/02/05 07:16:20;;;;;;;0.35;0.17;;;;;;;;;;4179458;28;20489;-33
2022/02/05 07:19:16;;;;;;;0.10;0.10;;;;;;;;;;4181253;28;20056;-33
2022/02/05 07:20:52;;;;;;;0.45;0.10;;;;;;;;;;4173769;28;20091;-33
2022/02/05 07:29:22;;;;;;;0.10;0.10;;;;;;;;;;4181488;28;20068;-33
2022/02/05 07:31:24;;;;;;;0.20;0.10;;;;;;;;;;4180342;28;20052;-33
2022/02/05 07:33:25;;;;;;;0.32;0.10;;;;;;;;;;4180899;28;20060;-33
2022/02/05 07:35:26;;;;;;;0.32;0.10;;;;;;;;;;4181221;28;20053;-33
2022/02/05 07:37:27;;;;;;;0.17;0.10;;;;;;;;;;4180848;28;20053;-33
2022/02/05 07:39:35;;;;;;;0.25;0.17;;;;;;;;;;4181130;28;20057;-33
2022/02/05 07:41:38;;;;;;;0.17;0.10;;;;;;;;;;4180694;28;20052;-33
2022/02/05 07:43:39;;;;;;;0.10;0.10;;;;;;;;;;4179577;28;20481;-33
2022/02/05 07:45:40;;;;;;;0.00;0.00;;;;;;;;;;4181089;28;20057;-34
2022/02/05 07:47:41;;;;;;;0.30;0.10;;;;;;;;;;4180649;28;20111;-33
2022/02/05 07:49:43;;;;;;;0.30;0.10;;;;;;;;;;4181172;28;20114;-33
2022/02/05 07:51:45;;;;;;;0.52;0.20;;;;;;;;;;4180935;28;20425;-33
2022/02/05 07:53:47;;;;;;;0.40;0.10;;;;;;;;;;4180731;28;20065;-34
2022/02/05 07:55:48;;;;;;;0.28;0.10;;;;;;;;;;4180987;28;20110;-33
2022/02/05 07:57:49;;;;;;;0.15;0.13;;;;;;;;;;4180699;28;20445;-33
2022/02/05 07:59:50;;;;;;;0.20;0.10;;;;;;;;;;4180652;28;20091;-33
2022/02/05 08:01:51;;;;;;;0.32;0.20;;;;;;;;;;4162482;28;20053;-33
2022/02/05 08:03:53;;;;;;;0.35;0.10;;;;;;;;;;4180653;28;20099;-33
2022/02/05 08:05:54;;;;;;;0.40;0.20;;;;;;;;;;4179306;28;20097;-33
2022/02/05 08:07:56;;;;;;;0.40;0.10;;;;;;;;;;4180692;28;20057;-33
2022/02/05 08:10:01;;;;;;;0.30;0.10;;;;;;;;;;4180895;28;20064;-33
2022/02/05 08:12:08;;;;;;;0.32;0.10;;;;;;;;;;4180427;28;20495;-33
2022/02/05 08:14:10;;;;;;;0.30;0.20;;;;;;;;;;4180622;28;20488;-33
2022/02/05 08:18:27;;;;;;;0.10;0.10;;;;;;;;;;4180652;28;20053;-33
2022/02/05 08:20:29;;;;;;;0.25;0.05;;;;;;;;;;4180578;28;20453;-33
2022/02/05 08:22:30;;;;;;;0.30;0.10;;;;;;;;;;4180508;28;20053;-33
2022/02/05 08:24:31;;;;;;;0.10;0.10;;;;;;;;;;4180501;28;20393;-33
2022/02/05 08:26:32;;;;;;;0.10;0.10;;;;;;;;;;4180331;28;20057;-33
2022/02/05 08:28:35;;;;;;;0.20;0.13;;;;;;;;;;4180536;28;20069;-33
2022/02/05 08:30:36;;;;;;;0.40;0.10;;;;;;;;;;4180447;28;20078;-33
2022/02/05 08:32:37;;;;;;;0.88;0.20;;;;;;;;;;4180489;28;20049;-33
2022/02/05 08:34:38;;;;;;;0.17;0.10;;;;;;;;;;4183883;28;20110;-33
2022/02/05 08:36:43;;;;;;;0.28;0.10;;;;;;;;;;4182524;28;20099;-33
2022/02/05 08:38:44;;;;;;;0.43;0.13;;;;;;;;;;4182390;28;20056;-33
2022/02/05 08:40:46;;;;;;;0.38;0.10;;;;;;;;;;4183760;28;20065;-33
2022/02/05 08:42:48;;;;;;;0.10;0.10;;;;;;;;;;4183819;28;20053;-33
2022/02/05 08:44:49;;;;;;;0.22;0.13;;;;;;;;;;4182703;28;20118;-33
2022/02/05 08:46:50;;;;;;;0.50;0.20;;;;;;;;;;4183323;28;20488;-33
2022/02/05 08:48:53;;;;;;;0.20;0.17;;;;;;;;;;4183484;28;20389;-33
2022/02/05 08:50:54;;;;;;;0.20;0.10;;;;;;;;;;4182214;28;20057;-33
2022/02/05 08:52:55;;;;;;;0.10;0.10;;;;;;;;;;4183475;28;20053;-33
2022/02/05 08:54:58;;;;;;;0.30;0.10;;;;;;;;;;4182335;28;20053;-33
2022/02/05 08:57:00;;;;;;;0.43;0.13;;;;;;;;;;4183341;28;20400;-33
2022/02/05 08:59:02;;;;;;;0.47;0.20;;;;;;;;;;4183224;28;20061;-33
2022/02/05 09:01:16;;;;;;;0.45;0.10;;;;;;;;;;4183127;28;20064;-33
2022/02/05 09:03:31;;;;;;;0.50;0.20;;;;;;;;;;4183430;28;20061;-33
2022/02/05 09:05:41;;;;;;;0.32;0.10;;;;;;;;;;4183658;28;20057;-33
2022/02/05 09:07:43;;;;;;;0.10;0.10;;;;;;;;;;4183308;28;20057;-32
2022/02/05 09:10:09;;;;;;;0.40;0.10;;;;;;;;;;4181986;28;20057;-33
2022/02/05 09:14:31;;;;;;;0.25;0.10;;;;;;;;;;4183387;28;20052;-33
2022/02/05 09:16:32;;;;;;;1.02;0.10;;;;;;;;;;4183079;28;20061;-33
2022/02/05 09:18:34;;;;;;;0.30;0.10;;;;;;;;;;4183248;28;20053;-33
2022/02/05 09:20:36;;;;;;;0.68;0.17;;;;;;;;;;4183069;28;20057;-33
2022/02/05 09:22:37;;;;;;;0.80;0.30;;;;;;;;;;4183130;28;20489;-33
2022/02/05 09:24:38;;;;;;;0.52;0.20;;;;;;;;;;4183283;28;20194;-33
2022/02/05 09:26:43;;;;;;;0.10;0.10;;;;;;;;;;4183048;28;20053;-33
2022/02/05 09:28:45;;;;;;;0.30;0.20;;;;;;;;;;4183016;28;20118;-33
2022/02/05 09:30:50;;;;;;;0.30;0.10;;;;;;;;;;4182470;28;20076;-33
2022/02/05 09:32:51;;;;;;;0.43;0.10;;;;;;;;;;4182869;28;20061;-33
2022/02/05 09:34:53;;;;;;;0.10;0.10;;;;;;;;;;4181955;28;20065;-33
2022/02/05 09:36:54;;;;;;;0.10;0.10;;;;;;;;;;4182680;28;20057;-33
2022/02/05 09:38:56;;;;;;;0.25;0.10;;;;;;;;;;4182516;28;20167;-33
2022/02/05 09:40:57;;;;;;;0.55;0.10;;;;;;;;;;4182629;28;20057;-33
2022/02/05 09:42:58;;;;;;;0.10;0.10;;;;;;;;;;4182970;28;20045;-33
2022/02/05 09:45:03;;;;;;;0.22;0.10;;;;;;;;;;4180658;28;20060;-33
2022/02/05 09:47:05;;;;;;;0.43;0.20;;;;;;;;;;4182630;28;20052;-33
2022/02/05 09:49:07;;;;;;;0.25;0.10;;;;;;;;;;4182557;28;20057;-33
2022/02/05 09:51:15;;;;;;;0.32;0.20;;;;;;;;;;4181325;28;20053;-33
2022/02/05 09:53:20;;;;;;;0.60;0.25;;;;;;;;;;4181561;28;20057;-33
2022/02/05 09:55:21;;;;;;;0.10;0.10;;;;;;;;;;4182560;28;20053;-33
2022/02/05 09:57:22;;;;;;;0.17;0.10;;;;;;;;;;4181074;28;20061;-33
2022/02/05 09:59:23;;;;;;;0.65;0.20;;;;;;;;;;4182424;28;20526;-33
2022/02/05 10:01:28;;;;;;;1.17;0.17;;;;;;;;;;4180562;28;20500;-33
2022/02/05 10:03:32;;;;;;;0.32;0.13;;;;;;;;;;4182345;28;20061;-33
2022/02/05 10:05:37;;;;;;;0.25;0.20;;;;;;;;;;4182604;28;20065;-33
2022/02/05 10:07:52;;;;;;;0.13;0.10;;;;;;;;;;4182239;28;20417;-33
2022/02/05 10:09:59;;;;;;;0.70;0.32;;;;;;;;;;4182631;28;20111;-33
2022/02/05 10:12:00;;;;;;;0.32;0.13;;;;;;;;;;4180853;28;20060;-33
2022/02/05 10:14:12;;;;;;;0.10;0.10;;;;;;;;;;4182552;28;20061;-33
2022/02/05 10:16:13;;;;;;;0.40;0.10;;;;;;;;;;4181829;28;20053;-33
2022/02/05 10:18:25;;;;;;;0.22;0.13;;;;;;;;;;4182145;28;20061;-33
2022/02/05 10:20:26;;;;;;;0.15;0.10;;;;;;;;;;4182164;28;20052;-33
2022/02/05 10:22:35;;;;;;;1.15;0.20;;;;;;;;;;4182295;28;20107;-33
2022/02/05 10:24:53;;;;;;;0.80;0.30;;;;;;;;;;4182201;28;20434;-33
2022/02/05 10:26:54;;;;;;;0.28;0.10;;;;;;;;;;4180895;28;20053;-33
2022/02/05 10:29:05;;;;;;;0.47;0.22;;;;;;;;;;4182294;28;20115;-33
2022/02/05 10:31:06;;;;;;;0.15;0.15;;;;;;;;;;4181631;28;20061;-33
2022/02/05 10:33:15;;;;;;;0.15;0.10;;;;;;;;;;4147788;28;20591;-33
2022/02/05 10:35:25;;;;;;;0.40;0.20;;;;;;;;;;4164271;28;20080;-33
2022/02/05 10:37:30;;;;;;;;;;;;;;;;;;4182310;28;20508;-33
2022/02/05 10:39:51;;;;;;;0.70;0.20;;;;;;;;;;4180818;28;19921;-33
2022/02/05 10:44:18;;;;;;;0.10;0.10;;;;;;;;;;4182150;28;20091;-33
2022/02/05 10:46:21;;;;;;;0.20;0.10;;;;;;;;;;4181627;28;20098;-33
2022/02/05 10:48:23;;;;;;;0.35;0.25;;;;;;;;;;4181664;28;20087;-33
2022/02/05 10:50:34;;;;;;;1.38;0.20;;;;;;;;;;4181589;28;20061;-33
2022/02/05 10:52:35;;;;;;;0.00;0.00;;;;;;;;;;4181529;28;20126;-33
2022/02/05 10:54:53;;;;;;;0.40;0.20;;;;;;;;;;4181588;28;20064;-33
2022/02/05 10:57:19;;;;;;;0.25;0.20;;;;;;;;;;4181691;28;20472;-33
2022/02/05 10:59:39;;;;;;;0.15;0.10;;;;;;;;;;4181506;28;20126;-33
2022/02/05 11:06:34;;;;;;;0.75;0.20;;;;;;;;;;4181481;28;20099;-33
2022/02/05 11:08:35;;;;;;;0.50;0.20;;;;;;;;;;4181341;28;20451;-33
2022/02/05 11:19:48;;;;;;;0.10;0.10;;;;;;;;;;4181139;28;20390;-33
2022/02/05 11:21:49;;;;;;;1.27;0.30;;;;;;;;;;4180004;28;20059;-33
2022/02/05 11:23:53;;;;;;;0.35;0.10;;;;;;;;;;4179995;28;20103;-33
2022/02/05 11:25:56;;;;;;;0.32;0.20;;;;;;;;;;4179980;28;20110;-33
2022/02/05 11:27:57;;;;;;;0.85;0.10;;;;;;;;;;4180112;28;20053;-33
2022/02/05 11:30:31;;;;;;;1.42;0.30;;;;;;;;;;4179896;28;20543;-33
2022/02/05 11:32:34;;;;;;;1.17;0.20;;;;;;;;;;4176267;28;20059;-33
2022/02/05 11:34:38;;;;;;;0.50;0.20;;;;;;;;;;4181148;28;20057;-33
2022/02/05 11:36:41;;;;;;;0.30;0.13;;;;;;;;;;4180802;28;20057;-33
2022/02/05 11:39:01;;;;;;;0.90;0.10;;;;;;;;;;4163090;28;20168;-33
2022/02/05 11:41:03;;;;;;;0.30;0.20;;;;;;;;;;4180971;28;20134;-33
2022/02/05 11:43:26;;;;;;;0.22;0.10;;;;;;;;;;4180893;28;20119;-33
2022/02/05 11:45:30;;;;;;;0.60;0.20;;;;;;;;;;4180939;28;20431;-33
2022/02/05 11:47:32;;;;;;;0.43;0.20;;;;;;;;;;4180628;28;20106;-33
2022/02/05 11:49:51;;;;;;;0.43;0.17;;;;;;;;;;4179485;28;20064;-33
2022/02/05 11:51:52;;;;;;;0.75;0.20;;;;;;;;;;4180731;28;20114;-33
2022/02/05 11:53:57;;;;;;;1.15;0.30;;;;;;;;;;4179727;28;20057;-33
2022/02/05 11:56:13;;;;;;;0.30;0.10;;;;;;;;;;4180703;28;20064;-33
2022/02/05 11:58:16;;;;;;;0.30;0.10;;;;;;;;;;4180696;28;20064;-33
2022/02/05 12:00:20;;;;;;;0.22;0.13;;;;;;;;;;4180658;28;20053;-33
2022/02/05 12:02:22;;;;;;;0.35;0.20;;;;;;;;;;4180107;28;20481;-33
2022/02/05 12:04:29;;;;;;;0.70;0.30;;;;;;;;;;4179218;28;20414;-33
2022/02/05 12:06:45;;;;;;;0.90;0.20;;;;;;;;;;4180670;28;20122;-33
2022/02/05 12:08:47;;;;;;;0.63;0.20;;;;;;;;;;4180622;28;20110;-33
2022/02/05 12:10:51;;;;;;;0.30;0.10;;;;;;;;;;4180704;28;20175;-33
2022/02/05 12:13:15;;;;;;;0.40;0.10;;;;;;;;;;4180554;28;20493;-33
2022/02/05 12:15:18;;;;;;;1.60;0.50;;;;;;;;;;4180876;28;20053;-33
2022/02/05 12:17:27;;;;;;;0.65;0.20;;;;;;;;;;4179961;28;20060;-33
2022/02/05 12:19:29;;;;;;;0.45;0.10;;;;;;;;;;4180981;28;20057;-33
2022/02/05 12:21:49;;;;;;;0.22;0.10;;;;;;;;;;4179454;28;20057;-33
2022/02/05 12:25:57;;;;;;;0.82;0.20;;;;;;;;;;4180480;28;20111;-33
2022/02/05 12:28:34;;;;;;;0.30;0.20;;;;;;;;;;4180632;28;20486;-33
2022/02/05 12:30:37;;;;;;;0.38;0.20;;;;;;;;;;4180763;28;20114;-33
2022/02/05 12:32:38;;;;;;;0.25;0.10;;;;;;;;;;4180011;28;20080;-33
2022/02/05 12:34:39;;;;;;;0.30;0.10;;;;;;;;;;4179258;28;20057;-33
2022/02/05 12:36:53;;;;;;;0.88;0.20;;;;;;;;;;4180289;28;20497;-33
2022/02/05 12:38:57;;;;;;;0.85;0.30;;;;;;;;;;4180527;28;20057;-33
2022/02/05 12:40:58;;;;;;;0.80;0.17;;;;;;;;;;4180133;28;20061;-33
2022/02/05 12:42:59;;;;;;;0.73;0.20;;;;;;;;;;4180383;28;20049;-33
2022/02/05 12:45:00;;;;;;;0.60;0.15;;;;;;;;;;4180385;28;20481;-33
2022/02/05 12:47:07;;;;;;;0.80;0.30;;;;;;;;;;4179843;28;20447;-33
2022/02/05 12:49:16;;;;;;;0.65;0.10;;;;;;;;;;4180392;28;20183;-33
2022/02/05 12:51:18;;;;;;;;;;;;;;;;;;4180772;28;20515;-33
2022/02/05 12:53:19;;;;;;;0.32;0.10;;;;;;;;;;4180339;28;19982;-33
2022/02/05 12:55:24;;;;;;;0.65;0.20;;;;;;;;;;4180458;28;20060;-33
2022/02/05 12:57:27;;;;;;;0.70;0.10;;;;;;;;;;4180049;28;20107;-33
2022/02/05 12:59:33;;;;;;;0.47;0.20;;;;;;;;;;4178942;28;20064;-33
2022/02/05 13:01:38;;;;;;;1.00;0.25;;;;;;;;;;4179680;28;20048;-33
2022/02/05 13:03:39;;;;;;;0.70;0.20;;;;;;;;;;4180104;28;20428;-33
2022/02/05 13:05:40;;;;;;;0.40;0.22;;;;;;;;;;4180374;28;20075;-33
2022/02/05 13:07:42;;;;;;;0.60;0.20;;;;;;;;;;4180273;28;20424;-33
2022/02/05 13:09:50;;;;;;;0.55;0.20;;;;;;;;;;4180408;28;20056;-33
2022/02/05 13:11:58;;;;;;;1.42;0.40;;;;;;;;;;4180031;28;20106;-33
2022/02/05 13:14:00;;;;;;;0.95;0.20;;;;;;;;;;4180205;28;20110;-33
2022/02/05 13:16:01;;;;;;;0.20;0.20;;;;;;;;;;4178399;28;20061;-33
2022/02/05 13:24:58;;;;;;;1.75;0.22;;;;;;;;;;4183395;28;20056;-33
2022/02/05 13:27:12;;;;;;;0.15;0.10;;;;;;;;;;4182993;28;20052;-33
2022/02/05 13:29:41;;;;;;;0.45;0.20;;;;;;;;;;4183016;28;20060;-33
2022/02/05 13:34:25;;;;;;;0.43;0.20;;;;;;;;;;4183387;28;20064;-33
2022/02/05 13:41:07;;;;;;;0.82;0.28;;;;;;;;;;4182661;28;20516;-33
2022/02/05 13:43:14;;;;;;;0.30;0.20;;;;;;;;;;4182887;28;20422;-33
2022/02/05 13:45:25;;;;;;;0.68;0.35;;;;;;;;;;4181352;28;20061;-33
2022/02/05 13:47:34;;;;;;;0.38;0.17;;;;;;;;;;4179971;28;20378;-33
2022/02/05 13:49:37;;;;;;;1.38;0.28;;;;;;;;;;4169677;28;20119;-33
2022/02/05 13:51:38;;;;;;;0.40;0.10;;;;;;;;;;4176199;28;20497;-33
2022/02/05 13:53:55;;;;;;;0.20;0.10;;;;;;;;;;4181991;28;20115;-33
2022/02/05 13:55:56;;;;;;;1.00;0.20;;;;;;;;;;4181898;28;20052;-33
2022/02/05 13:58:00;;;;;;;1.65;0.30;;;;;;;;;;4181581;28;20045;-33
2022/02/05 14:00:01;;;;;;;0.38;0.30;;;;;;;;;;4182515;28;20057;-34
2022/02/05 14:02:19;;;;;;;0.70;0.25;;;;;;;;;;4181654;28;20507;-33
2022/02/05 14:04:23;;;;;;;0.43;0.13;;;;;;;;;;4182499;28;20111;-33
2022/02/05 14:06:24;;;;;;;1.55;0.10;;;;;;;;;;4182177;28;20083;-33
2022/02/05 14:08:27;;;;;;;0.73;0.10;;;;;;;;;;4182234;28;20057;-33
2022/02/05 14:10:28;;;;;;;0.38;0.25;;;;;;;;;;4182531;28;20052;-33
2022/02/05 14:12:29;;;;;;;1.10;0.40;;;;;;;;;;4182081;28;20079;-33
2022/02/05 14:14:33;;;;;;;1.05;0.25;;;;;;;;;;4182043;28;20056;-33
2022/02/05 14:16:38;;;;;;;1.30;0.32;;;;;;;;;;4181759;28;20406;-33
2022/02/05 14:18:54;;;;;;;0.28;0.10;;;;;;;;;;4182034;28;20512;-33
2022/02/05 14:20:59;;;;;;;0.38;0.28;;;;;;;;;;4182034;28;20137;-33
2022/02/05 14:23:07;;;;;;;2.40;0.32;;;;;;;;;;4181489;28;20386;-33
2022/02/05 14:25:17;;;;;;;0.95;0.20;;;;;;;;;;4182258;28;20060;-33
2022/02/05 14:27:28;;;;;;;0.20;0.10;;;;;;;;;;4181198;28;20118;-33
2022/02/05 14:31:49;;;;;;;1.35;0.20;;;;;;;;;;4181022;28;20115;-33
2022/02/05 14:40:41;;;;;;;;;;;;;;;;;;4165782;28;20057;-33
2022/02/05 14:42:42;;;;;;;0.77;0.25;;;;;;;;;;4165237;28;20442;-33
2022/02/05 14:44:44;;;;;;;0.38;0.20;;;;;;;;;;4165650;28;20103;-33
2022/02/05 14:46:45;;;;;;;0.93;0.20;;;;;;;;;;4164834;28;20139;-33
2022/02/05 14:48:46;;;;;;;0.57;0.30;;;;;;;;;;4165430;28;20099;-33
2022/02/05 14:50:49;;;;;;;1.38;0.30;;;;;;;;;;4165083;28;20103;-33
2022/02/05 14:52:50;;;;;;;0.60;0.28;;;;;;;;;;4147807;28;20053;-33
2022/02/05 14:54:51;;;;;;;0.80;0.20;;;;;;;;;;4165116;28;20486;-33
2022/02/05 14:56:53;;;;;;;2.58;0.30;;;;;;;;;;4165038;28;20057;-33
2022/02/05 14:58:54;;;;;;;0.63;0.20;;;;;;;;;;4164927;28;20119;-33
2022/02/05 15:00:56;;;;;;;0.45;0.20;;;;;;;;;;4164346;28;20417;-33
2022/02/05 15:02:57;;;;;;;0.45;0.22;;;;;;;;;;4165006;28;20053;-33